Kingsford Heights, Indiana
Current Conditions -  °F | °C
As of 9:15 PM on Tuesday 25 Nov 2014 (Local Time) from KPPO Reporting Station
Overcast Overcast  
Wind Chill: 20°   Ceiling: 1400
Heat Index: 26°   Visibility: 10mi
Dew Point: 20°   Wind: 5mph
Humidity: 80%   Direction: 190°S
Pressure: 30.21"   Gusts: NA
Location:  41.48°N, 86.69°W
Report Text: KPPO 260315Z AUTO 19004KT 10SM OVC014 M03/M06 A3021 RMK AO2 T10351065
Loading
Personal Weather Stations






























Interactive Weather Map New forecast layout! Learn more

10-Day Weather Forecast

Advertisements
Track Severe Weather on mobile